sensor_id;sensor_type;location;lat;lon;timestamp;P1;durP1;ratioP1;P2;durP2;ratioP2
32808;SDS011;19159;48.178;16.386;2023-12-14T00:02:04;25.90;;;19.88;;
32808;SDS011;19159;48.178;16.386;2023-12-14T00:04:29;23.58;;;18.98;;
32808;SDS011;19159;48.178;16.386;2023-12-14T00:06:55;25.27;;;19.60;;
32808;SDS011;19159;48.178;16.386;2023-12-14T00:09:21;23.98;;;19.35;;
32808;SDS011;19159;48.178;16.386;2023-12-14T00:11:46;25.60;;;19.52;;
32808;SDS011;19159;48.178;16.386;2023-12-14T00:14:12;28.42;;;21.40;;
32808;SDS011;19159;48.178;16.386;2023-12-14T00:16:37;24.42;;;19.65;;
32808;SDS011;19159;48.178;16.386;2023-12-14T00:19:03;24.15;;;19.02;;
32808;SDS011;19159;48.178;16.386;2023-12-14T00:21:29;22.50;;;18.42;;
32808;SDS011;19159;48.178;16.386;2023-12-14T00:23:54;23.13;;;19.23;;
32808;SDS011;19159;48.178;16.386;2023-12-14T00:26:20;23.48;;;18.75;;
32808;SDS011;19159;48.178;16.386;2023-12-14T00:28:46;22.05;;;17.95;;
32808;SDS011;19159;48.178;16.386;2023-12-14T00:31:11;24.05;;;19.30;;
32808;SDS011;19159;48.178;16.386;2023-12-14T00:33:37;24.13;;;18.65;;
32808;SDS011;19159;48.178;16.386;2023-12-14T00:36:03;24.38;;;18.98;;
32808;SDS011;19159;48.178;16.386;2023-12-14T00:38:29;26.08;;;20.23;;
32808;SDS011;19159;48.178;16.386;2023-12-14T00:40:54;24.10;;;18.00;;
32808;SDS011;19159;48.178;16.386;2023-12-14T00:43:20;26.00;;;19.77;;
32808;SDS011;19159;48.178;16.386;2023-12-14T00:45:45;25.42;;;19.90;;
32808;SDS011;19159;48.178;16.386;2023-12-14T00:48:11;25.25;;;19.75;;
32808;SDS011;19159;48.178;16.386;2023-12-14T00:50:37;26.02;;;19.40;;
32808;SDS011;19159;48.178;16.386;2023-12-14T00:53:02;23.55;;;18.30;;
32808;SDS011;19159;48.178;16.386;2023-12-14T00:55:28;22.45;;;18.70;;
32808;SDS011;19159;48.178;16.386;2023-12-14T00:57:54;23.55;;;18.58;;
32808;SDS011;19159;48.178;16.386;2023-12-14T01:00:19;27.60;;;20.05;;
32808;SDS011;19159;48.178;16.386;2023-12-14T01:02:45;27.63;;;20.02;;
32808;SDS011;19159;48.178;16.386;2023-12-14T01:05:11;27.17;;;19.90;;
32808;SDS011;19159;48.178;16.386;2023-12-14T01:07:36;22.05;;;18.48;;
32808;SDS011;19159;48.178;16.386;2023-12-14T01:10:02;23.17;;;18.13;;
32808;SDS011;19159;48.178;16.386;2023-12-14T01:12:28;23.33;;;18.10;;
32808;SDS011;19159;48.178;16.386;2023-12-14T01:14:54;25.80;;;18.88;;
32808;SDS011;19159;48.178;16.386;2023-12-14T01:17:20;24.48;;;19.02;;
32808;SDS011;19159;48.178;16.386;2023-12-14T01:19:45;24.77;;;18.55;;
32808;SDS011;19159;48.178;16.386;2023-12-14T01:22:11;27.75;;;19.58;;
32808;SDS011;19159;48.178;16.386;2023-12-14T01:24:37;25.00;;;18.33;;
32808;SDS011;19159;48.178;16.386;2023-12-14T01:27:02;24.70;;;18.20;;
32808;SDS011;19159;48.178;16.386;2023-12-14T01:29:28;23.52;;;18.80;;
32808;SDS011;19159;48.178;16.386;2023-12-14T01:31:54;25.48;;;19.10;;
32808;SDS011;19159;48.178;16.386;2023-12-14T01:34:19;23.10;;;18.40;;
32808;SDS011;19159;48.178;16.386;2023-12-14T01:36:45;22.52;;;18.17;;
32808;SDS011;19159;48.178;16.386;2023-12-14T01:39:10;22.50;;;18.02;;
32808;SDS011;19159;48.178;16.386;2023-12-14T01:41:36;26.20;;;18.02;;
32808;SDS011;19159;48.178;16.386;2023-12-14T01:44:02;22.05;;;18.45;;
32808;SDS011;19159;48.178;16.386;2023-12-14T01:46:27;23.70;;;17.15;;
32808;SDS011;19159;48.178;16.386;2023-12-14T01:48:53;19.55;;;17.13;;
32808;SDS011;19159;48.178;16.386;2023-12-14T01:51:19;24.63;;;19.00;;
32808;SDS011;19159;48.178;16.386;2023-12-14T01:53:44;20.95;;;18.38;;
32808;SDS011;19159;48.178;16.386;2023-12-14T01:56:10;21.98;;;17.45;;
32808;SDS011;19159;48.178;16.386;2023-12-14T01:58:36;21.70;;;17.98;;
32808;SDS011;19159;48.178;16.386;2023-12-14T02:01:14;21.58;;;18.02;;
32808;SDS011;19159;48.178;16.386;2023-12-14T02:03:51;19.95;;;15.63;;
32808;SDS011;19159;48.178;16.386;2023-12-14T02:06:19;21.67;;;16.85;;
32808;SDS011;19159;48.178;16.386;2023-12-14T02:08:45;23.80;;;17.88;;
32808;SDS011;19159;48.178;16.386;2023-12-14T02:11:11;19.30;;;16.38;;
32808;SDS011;19159;48.178;16.386;2023-12-14T02:13:37;21.08;;;17.05;;
32808;SDS011;19159;48.178;16.386;2023-12-14T02:16:02;20.83;;;17.45;;
32808;SDS011;19159;48.178;16.386;2023-12-14T02:18:28;19.50;;;16.42;;
32808;SDS011;19159;48.178;16.386;2023-12-14T02:20:54;19.33;;;16.67;;
32808;SDS011;19159;48.178;16.386;2023-12-14T02:23:20;19.17;;;16.15;;
32808;SDS011;19159;48.178;16.386;2023-12-14T02:25:45;20.52;;;16.17;;
32808;SDS011;19159;48.178;16.386;2023-12-14T02:28:11;19.75;;;16.30;;
32808;SDS011;19159;48.178;16.386;2023-12-14T02:30:37;17.58;;;15.27;;
32808;SDS011;19159;48.178;16.386;2023-12-14T02:33:02;18.80;;;16.30;;
32808;SDS011;19159;48.178;16.386;2023-12-14T02:35:28;19.33;;;16.27;;
32808;SDS011;19159;48.178;16.386;2023-12-14T02:37:54;18.25;;;16.10;;
32808;SDS011;19159;48.178;16.386;2023-12-14T02:40:20;19.75;;;16.50;;
32808;SDS011;19159;48.178;16.386;2023-12-14T02:42:46;20.88;;;17.92;;
32808;SDS011;19159;48.178;16.386;2023-12-14T02:45:11;18.67;;;14.90;;
32808;SDS011;19159;48.178;16.386;2023-12-14T02:47:37;18.73;;;16.15;;
32808;SDS011;19159;48.178;16.386;2023-12-14T02:50:03;20.73;;;16.30;;
32808;SDS011;19159;48.178;16.386;2023-12-14T02:52:29;21.00;;;16.95;;
32808;SDS011;19159;48.178;16.386;2023-12-14T02:54:54;19.45;;;15.52;;
32808;SDS011;19159;48.178;16.386;2023-12-14T02:57:20;18.67;;;15.88;;
32808;SDS011;19159;48.178;16.386;2023-12-14T02:59:46;19.70;;;17.02;;
32808;SDS011;19159;48.178;16.386;2023-12-14T03:02:11;17.02;;;15.23;;
32808;SDS011;19159;48.178;16.386;2023-12-14T03:04:37;16.98;;;15.18;;
32808;SDS011;19159;48.178;16.386;2023-12-14T03:07:06;18.42;;;15.77;;
32808;SDS011;19159;48.178;16.386;2023-12-14T03:09:32;17.17;;;15.30;;
32808;SDS011;19159;48.178;16.386;2023-12-14T03:11:59;19.10;;;16.15;;
32808;SDS011;19159;48.178;16.386;2023-12-14T03:14:25;18.48;;;16.50;;
32808;SDS011;19159;48.178;16.386;2023-12-14T03:16:56;19.27;;;15.43;;
32808;SDS011;19159;48.178;16.386;2023-12-14T03:19:21;17.10;;;15.32;;
32808;SDS011;19159;48.178;16.386;2023-12-14T03:21:47;16.92;;;15.18;;
32808;SDS011;19159;48.178;16.386;2023-12-14T03:24:13;19.05;;;15.55;;
32808;SDS011;19159;48.178;16.386;2023-12-14T03:26:39;17.98;;;14.23;;
32808;SDS011;19159;48.178;16.386;2023-12-14T03:29:04;16.08;;;14.05;;
32808;SDS011;19159;48.178;16.386;2023-12-14T03:31:30;15.35;;;13.75;;
32808;SDS011;19159;48.178;16.386;2023-12-14T03:33:55;15.85;;;14.02;;
32808;SDS011;19159;48.178;16.386;2023-12-14T03:36:21;15.65;;;14.05;;
32808;SDS011;19159;48.178;16.386;2023-12-14T03:38:50;15.73;;;13.70;;
32808;SDS011;19159;48.178;16.386;2023-12-14T03:41:16;15.50;;;13.93;;
32808;SDS011;19159;48.178;16.386;2023-12-14T03:43:42;15.32;;;13.80;;
32808;SDS011;19159;48.178;16.386;2023-12-14T03:46:07;15.77;;;13.20;;
32808;SDS011;19159;48.178;16.386;2023-12-14T03:48:33;13.88;;;12.48;;
32808;SDS011;19159;48.178;16.386;2023-12-14T03:51:02;13.77;;;12.43;;
32808;SDS011;19159;48.178;16.386;2023-12-14T03:53:28;14.45;;;12.95;;
32808;SDS011;19159;48.178;16.386;2023-12-14T03:55:54;14.48;;;13.07;;
32808;SDS011;19159;48.178;16.386;2023-12-14T03:58:20;14.32;;;12.88;;
32808;SDS011;19159;48.178;16.386;2023-12-14T04:00:46;13.80;;;12.13;;
32808;SDS011;19159;48.178;16.386;2023-12-14T04:03:11;13.77;;;12.05;;
32808;SDS011;19159;48.178;16.386;2023-12-14T04:05:37;14.30;;;12.80;;
32808;SDS011;19159;48.178;16.386;2023-12-14T04:08:04;13.57;;;12.18;;
32808;SDS011;19159;48.178;16.386;2023-12-14T04:10:30;13.65;;;12.25;;
32808;SDS011;19159;48.178;16.386;2023-12-14T04:12:55;13.30;;;11.90;;
32808;SDS011;19159;48.178;16.386;2023-12-14T04:15:21;13.55;;;12.20;;
32808;SDS011;19159;48.178;16.386;2023-12-14T04:17:47;13.55;;;12.13;;
32808;SDS011;19159;48.178;16.386;2023-12-14T04:20:13;12.20;;;10.90;;
32808;SDS011;19159;48.178;16.386;2023-12-14T04:22:41;12.85;;;11.60;;
32808;SDS011;19159;48.178;16.386;2023-12-14T04:25:07;12.77;;;11.35;;
32808;SDS011;19159;48.178;16.386;2023-12-14T04:27:33;12.63;;;11.32;;
32808;SDS011;19159;48.178;16.386;2023-12-14T04:29:59;12.32;;;11.05;;
32808;SDS011;19159;48.178;16.386;2023-12-14T04:32:24;12.18;;;10.98;;
32808;SDS011;19159;48.178;16.386;2023-12-14T04:34:50;11.88;;;10.27;;
32808;SDS011;19159;48.178;16.386;2023-12-14T04:37:16;11.43;;;10.15;;
32808;SDS011;19159;48.178;16.386;2023-12-14T04:39:42;11.48;;;10.38;;
32808;SDS011;19159;48.178;16.386;2023-12-14T04:42:07;11.80;;;10.13;;
32808;SDS011;19159;48.178;16.386;2023-12-14T04:44:33;11.30;;;10.07;;
32808;SDS011;19159;48.178;16.386;2023-12-14T04:46:58;12.23;;;10.70;;
32808;SDS011;19159;48.178;16.386;2023-12-14T04:49:24;10.77;;;9.73;;
32808;SDS011;19159;48.178;16.386;2023-12-14T04:51:50;10.63;;;9.52;;
32808;SDS011;19159;48.178;16.386;2023-12-14T04:54:16;9.68;;;8.68;;
32808;SDS011;19159;48.178;16.386;2023-12-14T04:56:45;8.93;;;8.13;;
32808;SDS011;19159;48.178;16.386;2023-12-14T04:59:11;9.60;;;8.02;;
32808;SDS011;19159;48.178;16.386;2023-12-14T05:01:37;9.02;;;8.13;;
32808;SDS011;19159;48.178;16.386;2023-12-14T05:04:02;8.07;;;7.28;;
32808;SDS011;19159;48.178;16.386;2023-12-14T05:06:28;8.88;;;7.97;;
32808;SDS011;19159;48.178;16.386;2023-12-14T05:08:54;9.18;;;7.40;;
32808;SDS011;19159;48.178;16.386;2023-12-14T05:11:20;9.00;;;7.57;;
32808;SDS011;19159;48.178;16.386;2023-12-14T05:13:46;6.95;;;6.30;;
32808;SDS011;19159;48.178;16.386;2023-12-14T05:16:15;6.97;;;6.35;;
32808;SDS011;19159;48.178;16.386;2023-12-14T05:18:40;7.78;;;6.78;;
32808;SDS011;19159;48.178;16.386;2023-12-14T05:21:06;6.85;;;6.25;;
32808;SDS011;19159;48.178;16.386;2023-12-14T05:23:32;7.22;;;6.53;;
32808;SDS011;19159;48.178;16.386;2023-12-14T05:25:58;6.68;;;6.00;;
32808;SDS011;19159;48.178;16.386;2023-12-14T05:28:24;6.63;;;6.00;;
32808;SDS011;19159;48.178;16.386;2023-12-14T05:30:49;6.40;;;5.80;;
32808;SDS011;19159;48.178;16.386;2023-12-14T05:33:15;6.90;;;6.20;;
32808;SDS011;19159;48.178;16.386;2023-12-14T05:35:40;7.50;;;6.35;;
32808;SDS011;19159;48.178;16.386;2023-12-14T05:38:06;6.00;;;5.40;;
32808;SDS011;19159;48.178;16.386;2023-12-14T05:40:32;6.18;;;5.57;;
32808;SDS011;19159;48.178;16.386;2023-12-14T05:42:57;5.88;;;4.97;;
32808;SDS011;19159;48.178;16.386;2023-12-14T05:45:23;4.65;;;4.25;;
32808;SDS011;19159;48.178;16.386;2023-12-14T05:47:49;4.78;;;4.30;;
32808;SDS011;19159;48.178;16.386;2023-12-14T05:50:16;5.15;;;4.65;;
32808;SDS011;19159;48.178;16.386;2023-12-14T05:52:41;4.15;;;3.75;;
32808;SDS011;19159;48.178;16.386;2023-12-14T05:55:08;4.30;;;3.90;;
32808;SDS011;19159;48.178;16.386;2023-12-14T05:57:37;3.92;;;3.55;;
32808;SDS011;19159;48.178;16.386;2023-12-14T06:00:05;3.35;;;3.05;;
32808;SDS011;19159;48.178;16.386;2023-12-14T06:02:32;4.65;;;3.00;;
32808;SDS011;19159;48.178;16.386;2023-12-14T06:04:58;2.80;;;2.60;;
32808;SDS011;19159;48.178;16.386;2023-12-14T06:07:24;3.40;;;2.75;;
32808;SDS011;19159;48.178;16.386;2023-12-14T06:09:50;3.13;;;2.83;;
32808;SDS011;19159;48.178;16.386;2023-12-14T06:12:15;4.38;;;2.63;;
32808;SDS011;19159;48.178;16.386;2023-12-14T06:14:41;2.35;;;2.15;;
32808;SDS011;19159;48.178;16.386;2023-12-14T06:17:07;2.33;;;2.13;;
32808;SDS011;19159;48.178;16.386;2023-12-14T06:19:32;2.40;;;2.20;;
32808;SDS011;19159;48.178;16.386;2023-12-14T06:21:58;2.42;;;2.15;;
32808;SDS011;19159;48.178;16.386;2023-12-14T06:24:24;1.90;;;1.65;;
32808;SDS011;19159;48.178;16.386;2023-12-14T06:26:49;4.07;;;1.90;;
32808;SDS011;19159;48.178;16.386;2023-12-14T06:29:15;3.30;;;2.20;;
32808;SDS011;19159;48.178;16.386;2023-12-14T06:31:41;2.40;;;1.55;;
32808;SDS011;19159;48.178;16.386;2023-12-14T06:34:06;2.22;;;1.15;;
32808;SDS011;19159;48.178;16.386;2023-12-14T06:36:33;3.70;;;1.60;;
32808;SDS011;19159;48.178;16.386;2023-12-14T06:38:59;2.80;;;1.30;;
32808;SDS011;19159;48.178;16.386;2023-12-14T06:41:26;3.65;;;1.30;;
32808;SDS011;19159;48.178;16.386;2023-12-14T06:43:53;2.35;;;1.27;;
32808;SDS011;19159;48.178;16.386;2023-12-14T06:46:19;1.65;;;1.02;;
32808;SDS011;19159;48.178;16.386;2023-12-14T06:48:45;2.38;;;1.20;;
32808;SDS011;19159;48.178;16.386;2023-12-14T06:51:10;1.42;;;1.10;;
32808;SDS011;19159;48.178;16.386;2023-12-14T06:53:38;1.33;;;1.10;;
32808;SDS011;19159;48.178;16.386;2023-12-14T06:56:05;1.55;;;1.30;;
32808;SDS011;19159;48.178;16.386;2023-12-14T06:58:34;2.58;;;1.70;;
32808;SDS011;19159;48.178;16.386;2023-12-14T07:01:00;2.97;;;1.50;;
32808;SDS011;19159;48.178;16.386;2023-12-14T07:03:26;2.30;;;1.63;;
32808;SDS011;19159;48.178;16.386;2023-12-14T07:05:51;2.33;;;1.80;;
32808;SDS011;19159;48.178;16.386;2023-12-14T07:08:17;3.25;;;2.03;;
32808;SDS011;19159;48.178;16.386;2023-12-14T07:10:43;1.83;;;1.40;;
32808;SDS011;19159;48.178;16.386;2023-12-14T07:13:08;2.28;;;1.55;;
32808;SDS011;19159;48.178;16.386;2023-12-14T07:15:34;1.45;;;1.25;;
32808;SDS011;19159;48.178;16.386;2023-12-14T07:17:59;1.60;;;1.15;;
32808;SDS011;19159;48.178;16.386;2023-12-14T07:20:25;2.08;;;1.10;;
32808;SDS011;19159;48.178;16.386;2023-12-14T07:22:51;1.50;;;1.05;;
32808;SDS011;19159;48.178;16.386;2023-12-14T07:25:16;1.85;;;1.10;;
32808;SDS011;19159;48.178;16.386;2023-12-14T07:27:42;1.23;;;1.00;;
32808;SDS011;19159;48.178;16.386;2023-12-14T07:30:08;1.75;;;0.90;;
32808;SDS011;19159;48.178;16.386;2023-12-14T07:32:35;1.65;;;1.10;;
32808;SDS011;19159;48.178;16.386;2023-12-14T07:35:00;1.13;;;0.88;;
32808;SDS011;19159;48.178;16.386;2023-12-14T07:37:26;0.93;;;0.80;;
32808;SDS011;19159;48.178;16.386;2023-12-14T07:39:52;1.60;;;0.88;;
32808;SDS011;19159;48.178;16.386;2023-12-14T07:42:17;0.65;;;0.65;;
32808;SDS011;19159;48.178;16.386;2023-12-14T07:44:46;1.42;;;0.93;;
32808;SDS011;19159;48.178;16.386;2023-12-14T07:47:11;1.70;;;0.80;;
32808;SDS011;19159;48.178;16.386;2023-12-14T07:49:37;0.80;;;0.80;;
32808;SDS011;19159;48.178;16.386;2023-12-14T07:52:03;1.20;;;0.90;;
32808;SDS011;19159;48.178;16.386;2023-12-14T07:54:29;2.08;;;0.95;;
32808;SDS011;19159;48.178;16.386;2023-12-14T07:56:54;1.30;;;0.90;;
32808;SDS011;19159;48.178;16.386;2023-12-14T07:59:20;2.13;;;1.10;;
32808;SDS011;19159;48.178;16.386;2023-12-14T08:01:46;1.10;;;0.80;;
32808;SDS011;19159;48.178;16.386;2023-12-14T08:04:12;0.77;;;0.70;;
32808;SDS011;19159;48.178;16.386;2023-12-14T08:06:37;1.08;;;0.70;;
32808;SDS011;19159;48.178;16.386;2023-12-14T08:09:06;0.82;;;0.82;;
32808;SDS011;19159;48.178;16.386;2023-12-14T08:11:32;1.15;;;0.75;;
32808;SDS011;19159;48.178;16.386;2023-12-14T08:13:58;1.42;;;0.80;;
32808;SDS011;19159;48.178;16.386;2023-12-14T08:16:24;2.58;;;0.90;;
32808;SDS011;19159;48.178;16.386;2023-12-14T08:18:50;0.80;;;0.70;;
32808;SDS011;19159;48.178;16.386;2023-12-14T08:21:16;1.10;;;0.80;;
32808;SDS011;19159;48.178;16.386;2023-12-14T08:23:43;1.27;;;0.80;;
32808;SDS011;19159;48.178;16.386;2023-12-14T08:26:09;0.88;;;0.70;;
32808;SDS011;19159;48.178;16.386;2023-12-14T08:28:41;1.08;;;0.93;;
32808;SDS011;19159;48.178;16.386;2023-12-14T08:31:07;1.00;;;0.80;;
32808;SDS011;19159;48.178;16.386;2023-12-14T08:33:34;1.02;;;0.88;;
32808;SDS011;19159;48.178;16.386;2023-12-14T08:36:00;0.98;;;0.80;;
32808;SDS011;19159;48.178;16.386;2023-12-14T08:38:26;0.93;;;0.80;;
32808;SDS011;19159;48.178;16.386;2023-12-14T08:40:51;0.95;;;0.77;;
32808;SDS011;19159;48.178;16.386;2023-12-14T08:43:17;3.80;;;2.83;;
32808;SDS011;19159;48.178;16.386;2023-12-14T08:45:43;1.35;;;1.02;;
32808;SDS011;19159;48.178;16.386;2023-12-14T08:48:08;2.13;;;1.40;;
32808;SDS011;19159;48.178;16.386;2023-12-14T08:50:34;1.35;;;1.17;;
32808;SDS011;19159;48.178;16.386;2023-12-14T08:53:00;1.10;;;0.98;;
32808;SDS011;19159;48.178;16.386;2023-12-14T08:55:26;1.42;;;0.90;;
32808;SDS011;19159;48.178;16.386;2023-12-14T08:57:52;1.33;;;1.08;;
32808;SDS011;19159;48.178;16.386;2023-12-14T09:00:18;1.27;;;1.17;;
32808;SDS011;19159;48.178;16.386;2023-12-14T09:02:44;1.98;;;1.02;;
32808;SDS011;19159;48.178;16.386;2023-12-14T09:05:13;1.45;;;1.25;;
32808;SDS011;19159;48.178;16.386;2023-12-14T09:07:40;1.77;;;1.13;;
32808;SDS011;19159;48.178;16.386;2023-12-14T09:10:06;2.08;;;1.40;;
32808;SDS011;19159;48.178;16.386;2023-12-14T09:12:33;2.00;;;1.40;;
32808;SDS011;19159;48.178;16.386;2023-12-14T09:14:59;1.60;;;1.38;;
32808;SDS011;19159;48.178;16.386;2023-12-14T09:17:25;3.05;;;1.10;;
32808;SDS011;19159;48.178;16.386;2023-12-14T09:19:57;1.73;;;1.20;;
32808;SDS011;19159;48.178;16.386;2023-12-14T09:22:22;1.23;;;1.13;;
32808;SDS011;19159;48.178;16.386;2023-12-14T09:24:48;2.50;;;1.40;;
32808;SDS011;19159;48.178;16.386;2023-12-14T09:27:13;1.40;;;1.10;;
32808;SDS011;19159;48.178;16.386;2023-12-14T09:29:40;3.38;;;2.00;;
32808;SDS011;19159;48.178;16.386;2023-12-14T09:32:07;1.75;;;1.25;;
32808;SDS011;19159;48.178;16.386;2023-12-14T09:34:33;2.70;;;1.60;;
32808;SDS011;19159;48.178;16.386;2023-12-14T09:36:59;2.95;;;1.13;;
32808;SDS011;19159;48.178;16.386;2023-12-14T09:39:25;1.60;;;0.90;;
32808;SDS011;19159;48.178;16.386;2023-12-14T09:41:50;2.50;;;0.93;;
32808;SDS011;19159;48.178;16.386;2023-12-14T09:44:16;1.60;;;1.10;;
32808;SDS011;19159;48.178;16.386;2023-12-14T09:46:42;1.92;;;1.10;;
32808;SDS011;19159;48.178;16.386;2023-12-14T09:49:14;2.13;;;0.90;;
32808;SDS011;19159;48.178;16.386;2023-12-14T09:51:40;2.63;;;1.35;;
32808;SDS011;19159;48.178;16.386;2023-12-14T09:54:06;3.05;;;1.08;;
32808;SDS011;19159;48.178;16.386;2023-12-14T09:56:32;1.10;;;1.00;;
32808;SDS011;19159;48.178;16.386;2023-12-14T09:58:57;3.30;;;1.10;;
32808;SDS011;19159;48.178;16.386;2023-12-14T10:01:26;1.73;;;1.05;;
32808;SDS011;19159;48.178;16.386;2023-12-14T10:06:40;2.40;;;1.05;;
32808;SDS011;19159;48.178;16.386;2023-12-14T10:09:07;1.38;;;1.00;;
32808;SDS011;19159;48.178;16.386;2023-12-14T10:11:44;1.63;;;1.00;;
32808;SDS011;19159;48.178;16.386;2023-12-14T10:14:19;1.10;;;0.95;;
32808;SDS011;19159;48.178;16.386;2023-12-14T10:16:47;1.40;;;0.95;;
32808;SDS011;19159;48.178;16.386;2023-12-14T10:19:14;0.80;;;0.80;;
32808;SDS011;19159;48.178;16.386;2023-12-14T10:21:41;2.30;;;1.23;;
32808;SDS011;19159;48.178;16.386;2023-12-14T10:24:07;1.60;;;0.80;;
32808;SDS011;19159;48.178;16.386;2023-12-14T10:26:33;1.73;;;0.95;;
32808;SDS011;19159;48.178;16.386;2023-12-14T10:28:58;1.00;;;0.90;;
32808;SDS011;19159;48.178;16.386;2023-12-14T10:31:24;2.00;;;1.08;;
32808;SDS011;19159;48.178;16.386;2023-12-14T10:33:51;1.77;;;0.73;;
32808;SDS011;19159;48.178;16.386;2023-12-14T10:36:20;3.08;;;1.00;;
32808;SDS011;19159;48.178;16.386;2023-12-14T10:38:52;0.90;;;0.80;;
32808;SDS011;19159;48.178;16.386;2023-12-14T10:41:20;1.10;;;0.80;;
32808;SDS011;19159;48.178;16.386;2023-12-14T10:43:47;0.93;;;0.75;;
32808;SDS011;19159;48.178;16.386;2023-12-14T10:46:15;1.73;;;1.08;;
32808;SDS011;19159;48.178;16.386;2023-12-14T10:48:42;0.95;;;0.85;;
32808;SDS011;19159;48.178;16.386;2023-12-14T10:51:13;1.65;;;1.25;;
32808;SDS011;19159;48.178;16.386;2023-12-14T10:53:40;3.25;;;1.60;;
32808;SDS011;19159;48.178;16.386;2023-12-14T10:56:11;2.35;;;1.15;;
32808;SDS011;19159;48.178;16.386;2023-12-14T10:58:54;3.15;;;1.20;;
32808;SDS011;19159;48.178;16.386;2023-12-14T11:01:22;1.70;;;0.90;;
32808;SDS011;19159;48.178;16.386;2023-12-14T11:03:49;2.78;;;1.70;;
32808;SDS011;19159;48.178;16.386;2023-12-14T11:08:47;3.13;;;0.95;;
32808;SDS011;19159;48.178;16.386;2023-12-14T11:11:13;1.15;;;0.80;;
32808;SDS011;19159;48.178;16.386;2023-12-14T11:13:45;2.05;;;0.77;;
32808;SDS011;19159;48.178;16.386;2023-12-14T11:16:26;0.98;;;0.80;;
32808;SDS011;19159;48.178;16.386;2023-12-14T11:19:37;1.70;;;0.80;;
32808;SDS011;19159;48.178;16.386;2023-12-14T11:21:47;1.42;;;1.05;;
32808;SDS011;19159;48.178;16.386;2023-12-14T11:24:20;1.40;;;1.00;;
32808;SDS011;19159;48.178;16.386;2023-12-14T11:26:48;2.15;;;1.02;;
32808;SDS011;19159;48.178;16.386;2023-12-14T11:29:15;1.25;;;1.02;;
32808;SDS011;19159;48.178;16.386;2023-12-14T11:31:42;1.30;;;0.85;;
32808;SDS011;19159;48.178;16.386;2023-12-14T11:34:07;2.58;;;1.50;;
32808;SDS011;19159;48.178;16.386;2023-12-14T11:36:33;1.20;;;1.10;;
32808;SDS011;19159;48.178;16.386;2023-12-14T11:38:59;1.90;;;1.38;;
32808;SDS011;19159;48.178;16.386;2023-12-14T11:41:24;1.73;;;1.23;;
32808;SDS011;19159;48.178;16.386;2023-12-14T11:43:51;1.80;;;1.40;;
32808;SDS011;19159;48.178;16.386;2023-12-14T11:46:17;1.42;;;1.33;;
32808;SDS011;19159;48.178;16.386;2023-12-14T11:48:46;2.33;;;1.73;;
32808;SDS011;19159;48.178;16.386;2023-12-14T11:51:14;2.35;;;1.90;;
32808;SDS011;19159;48.178;16.386;2023-12-14T11:53:43;2.05;;;1.73;;
32808;SDS011;19159;48.178;16.386;2023-12-14T11:56:13;3.45;;;1.77;;
32808;SDS011;19159;48.178;16.386;2023-12-14T11:58:43;2.13;;;1.80;;
32808;SDS011;19159;48.178;16.386;2023-12-14T12:01:17;3.80;;;1.77;;
32808;SDS011;19159;48.178;16.386;2023-12-14T12:03:44;2.05;;;1.85;;
32808;SDS011;19159;48.178;16.386;2023-12-14T12:06:23;2.20;;;1.98;;
32808;SDS011;19159;48.178;16.386;2023-12-14T12:08:50;3.75;;;2.30;;
32808;SDS011;19159;48.178;16.386;2023-12-14T12:11:20;3.42;;;2.63;;
32808;SDS011;19159;48.178;16.386;2023-12-14T12:13:54;2.30;;;2.10;;
32808;SDS011;19159;48.178;16.386;2023-12-14T12:16:20;3.00;;;2.22;;
32808;SDS011;19159;48.178;16.386;2023-12-14T12:18:46;3.03;;;2.20;;
32808;SDS011;19159;48.178;16.386;2023-12-14T12:21:12;3.67;;;2.30;;
32808;SDS011;19159;48.178;16.386;2023-12-14T12:23:38;4.70;;;3.00;;
32808;SDS011;19159;48.178;16.386;2023-12-14T12:26:05;2.10;;;1.77;;
32808;SDS011;19159;48.178;16.386;2023-12-14T12:28:31;2.42;;;1.50;;
32808;SDS011;19159;48.178;16.386;2023-12-14T12:30:57;2.85;;;2.03;;
32808;SDS011;19159;48.178;16.386;2023-12-14T12:33:24;5.55;;;4.38;;
32808;SDS011;19159;48.178;16.386;2023-12-14T12:35:50;2.60;;;1.65;;
32808;SDS011;19159;48.178;16.386;2023-12-14T12:38:16;2.70;;;1.90;;
32808;SDS011;19159;48.178;16.386;2023-12-14T12:40:44;2.13;;;1.83;;
32808;SDS011;19159;48.178;16.386;2023-12-14T12:43:10;2.42;;;1.90;;
32808;SDS011;19159;48.178;16.386;2023-12-14T12:45:36;3.53;;;2.58;;
32808;SDS011;19159;48.178;16.386;2023-12-14T12:48:02;2.58;;;1.88;;
32808;SDS011;19159;48.178;16.386;2023-12-14T12:50:31;3.05;;;2.17;;
32808;SDS011;19159;48.178;16.386;2023-12-14T12:52:56;3.08;;;2.22;;
32808;SDS011;19159;48.178;16.386;2023-12-14T12:55:22;2.45;;;1.85;;
32808;SDS011;19159;48.178;16.386;2023-12-14T12:57:48;3.25;;;1.80;;
32808;SDS011;19159;48.178;16.386;2023-12-14T13:00:14;1.92;;;1.60;;
32808;SDS011;19159;48.178;16.386;2023-12-14T13:02:41;3.17;;;1.50;;
32808;SDS011;19159;48.178;16.386;2023-12-14T13:05:08;2.95;;;1.98;;
32808;SDS011;19159;48.178;16.386;2023-12-14T13:07:34;2.00;;;1.60;;
32808;SDS011;19159;48.178;16.386;2023-12-14T13:10:01;2.47;;;1.60;;
32808;SDS011;19159;48.178;16.386;2023-12-14T13:12:31;1.98;;;1.67;;
32808;SDS011;19159;48.178;16.386;2023-12-14T13:14:56;2.72;;;1.40;;
32808;SDS011;19159;48.178;16.386;2023-12-14T13:17:22;2.30;;;1.50;;
32808;SDS011;19159;48.178;16.386;2023-12-14T13:19:48;5.82;;;2.05;;
32808;SDS011;19159;48.178;16.386;2023-12-14T13:22:16;1.85;;;1.40;;
32808;SDS011;19159;48.178;16.386;2023-12-14T13:24:41;2.10;;;1.40;;
32808;SDS011;19159;48.178;16.386;2023-12-14T13:27:07;1.55;;;1.27;;
32808;SDS011;19159;48.178;16.386;2023-12-14T13:29:33;1.52;;;1.35;;
32808;SDS011;19159;48.178;16.386;2023-12-14T13:32:00;1.52;;;1.35;;
32808;SDS011;19159;48.178;16.386;2023-12-14T13:34:26;2.45;;;1.90;;
32808;SDS011;19159;48.178;16.386;2023-12-14T13:36:55;2.40;;;2.03;;
32808;SDS011;19159;48.178;16.386;2023-12-14T13:39:21;2.78;;;1.70;;
32808;SDS011;19159;48.178;16.386;2023-12-14T13:41:47;2.97;;;1.73;;
32808;SDS011;19159;48.178;16.386;2023-12-14T13:44:13;1.95;;;1.40;;
32808;SDS011;19159;48.178;16.386;2023-12-14T13:46:39;1.95;;;1.50;;
32808;SDS011;19159;48.178;16.386;2023-12-14T13:49:04;3.08;;;1.90;;
32808;SDS011;19159;48.178;16.386;2023-12-14T13:51:30;3.03;;;1.67;;
32808;SDS011;19159;48.178;16.386;2023-12-14T13:53:56;3.78;;;1.48;;
32808;SDS011;19159;48.178;16.386;2023-12-14T13:56:21;1.77;;;1.38;;
32808;SDS011;19159;48.178;16.386;2023-12-14T13:58:47;3.42;;;1.73;;
32808;SDS011;19159;48.178;16.386;2023-12-14T14:01:13;4.32;;;1.40;;
32808;SDS011;19159;48.178;16.386;2023-12-14T14:03:40;2.38;;;1.40;;
32808;SDS011;19159;48.178;16.386;2023-12-14T14:06:07;1.83;;;1.38;;
32808;SDS011;19159;48.178;16.386;2023-12-14T14:08:32;1.80;;;1.50;;
32808;SDS011;19159;48.178;16.386;2023-12-14T14:11:00;2.55;;;1.40;;
32808;SDS011;19159;48.178;16.386;2023-12-14T14:13:26;1.63;;;1.50;;
32808;SDS011;19159;48.178;16.386;2023-12-14T14:15:52;3.13;;;1.05;;
32808;SDS011;19159;48.178;16.386;2023-12-14T14:18:17;2.08;;;1.13;;
32808;SDS011;19159;48.178;16.386;2023-12-14T14:20:44;2.83;;;1.27;;
32808;SDS011;19159;48.178;16.386;2023-12-14T14:23:10;1.60;;;1.33;;
32808;SDS011;19159;48.178;16.386;2023-12-14T14:25:37;1.23;;;1.10;;
32808;SDS011;19159;48.178;16.386;2023-12-14T14:28:06;4.25;;;1.30;;